sensor_id;sensor_type;location;lat;lon;timestamp;P1;durP1;ratioP1;P2;durP2;ratioP2
57297;SDS011;43147;50.972;18.210;2022-11-15T00:01:32;80.80;;;33.70;;
57297;SDS011;43147;50.972;18.210;2022-11-15T00:03:57;86.80;;;33.50;;
57297;SDS011;43147;50.972;18.210;2022-11-15T00:06:23;71.70;;;33.00;;
57297;SDS011;43147;50.972;18.210;2022-11-15T00:08:48;66.50;;;31.90;;
57297;SDS011;43147;50.972;18.210;2022-11-15T00:11:14;79.00;;;33.80;;
57297;SDS011;43147;50.972;18.210;2022-11-15T00:13:39;67.00;;;29.00;;
57297;SDS011;43147;50.972;18.210;2022-11-15T00:16:05;70.20;;;29.70;;
57297;SDS011;43147;50.972;18.210;2022-11-15T00:18:30;71.60;;;32.60;;
57297;SDS011;43147;50.972;18.210;2022-11-15T00:21:02;73.40;;;31.90;;
57297;SDS011;43147;50.972;18.210;2022-11-15T00:23:29;71.10;;;31.80;;
57297;SDS011;43147;50.972;18.210;2022-11-15T00:25:55;66.70;;;28.20;;
57297;SDS011;43147;50.972;18.210;2022-11-15T00:28:22;63.80;;;28.90;;
57297;SDS011;43147;50.972;18.210;2022-11-15T00:30:48;73.40;;;31.30;;
57297;SDS011;43147;50.972;18.210;2022-11-15T00:33:13;66.80;;;29.90;;
57297;SDS011;43147;50.972;18.210;2022-11-15T00:35:39;67.40;;;30.60;;
57297;SDS011;43147;50.972;18.210;2022-11-15T00:38:04;73.50;;;31.80;;
57297;SDS011;43147;50.972;18.210;2022-11-15T00:40:30;70.20;;;30.50;;
57297;SDS011;43147;50.972;18.210;2022-11-15T00:42:55;71.30;;;30.60;;
57297;SDS011;43147;50.972;18.210;2022-11-15T00:45:23;75.30;;;32.00;;
57297;SDS011;43147;50.972;18.210;2022-11-15T00:47:49;77.30;;;32.60;;
57297;SDS011;43147;50.972;18.210;2022-11-15T00:50:16;74.30;;;31.50;;
57297;SDS011;43147;50.972;18.210;2022-11-15T00:52:41;72.60;;;31.90;;
57297;SDS011;43147;50.972;18.210;2022-11-15T00:55:08;68.40;;;30.60;;
57297;SDS011;43147;50.972;18.210;2022-11-15T00:57:37;72.80;;;30.20;;
57297;SDS011;43147;50.972;18.210;2022-11-15T01:00:03;67.00;;;30.50;;
57297;SDS011;43147;50.972;18.210;2022-11-15T01:02:30;77.20;;;30.90;;
57297;SDS011;43147;50.972;18.210;2022-11-15T01:04:55;79.70;;;34.60;;
57297;SDS011;43147;50.972;18.210;2022-11-15T01:07:21;71.90;;;31.40;;
57297;SDS011;43147;50.972;18.210;2022-11-15T01:09:46;64.10;;;30.90;;
57297;SDS011;43147;50.972;18.210;2022-11-15T01:12:12;71.00;;;32.10;;
57297;SDS011;43147;50.972;18.210;2022-11-15T01:14:37;73.80;;;31.30;;
57297;SDS011;43147;50.972;18.210;2022-11-15T01:17:03;70.50;;;31.20;;
57297;SDS011;43147;50.972;18.210;2022-11-15T01:19:28;67.30;;;28.60;;
57297;SDS011;43147;50.972;18.210;2022-11-15T01:21:53;78.20;;;31.80;;
57297;SDS011;43147;50.972;18.210;2022-11-15T01:24:19;64.90;;;30.10;;
57297;SDS011;43147;50.972;18.210;2022-11-15T01:26:44;66.40;;;30.30;;
57297;SDS011;43147;50.972;18.210;2022-11-15T01:29:10;71.10;;;30.00;;
57297;SDS011;43147;50.972;18.210;2022-11-15T01:31:35;76.10;;;32.70;;
57297;SDS011;43147;50.972;18.210;2022-11-15T01:34:03;69.90;;;30.70;;
57297;SDS011;43147;50.972;18.210;2022-11-15T01:36:29;71.90;;;30.70;;
57297;SDS011;43147;50.972;18.210;2022-11-15T01:38:55;67.10;;;33.70;;
57297;SDS011;43147;50.972;18.210;2022-11-15T01:41:23;74.20;;;31.80;;
57297;SDS011;43147;50.972;18.210;2022-11-15T01:43:54;71.40;;;29.10;;
57297;SDS011;43147;50.972;18.210;2022-11-15T01:46:44;69.90;;;30.80;;
57297;SDS011;43147;50.972;18.210;2022-11-15T01:49:13;68.00;;;29.70;;
57297;SDS011;43147;50.972;18.210;2022-11-15T01:51:40;67.90;;;30.10;;
57297;SDS011;43147;50.972;18.210;2022-11-15T01:54:07;65.80;;;29.50;;
57297;SDS011;43147;50.972;18.210;2022-11-15T01:56:40;69.30;;;29.90;;
57297;SDS011;43147;50.972;18.210;2022-11-15T02:04:02;56.30;;;24.70;;
57297;SDS011;43147;50.972;18.210;2022-11-15T02:06:33;60.80;;;27.60;;
57297;SDS011;43147;50.972;18.210;2022-11-15T02:09:00;71.40;;;31.70;;
57297;SDS011;43147;50.972;18.210;2022-11-15T02:11:25;64.10;;;28.80;;
57297;SDS011;43147;50.972;18.210;2022-11-15T02:13:51;79.20;;;31.90;;
57297;SDS011;43147;50.972;18.210;2022-11-15T02:16:25;79.40;;;33.40;;
57297;SDS011;43147;50.972;18.210;2022-11-15T02:21:52;71.90;;;31.10;;
57297;SDS011;43147;50.972;18.210;2022-11-15T02:30:20;64.90;;;30.70;;
57297;SDS011;43147;50.972;18.210;2022-11-15T02:33:31;60.30;;;29.30;;
57297;SDS011;43147;50.972;18.210;2022-11-15T02:36:02;65.60;;;29.30;;
57297;SDS011;43147;50.972;18.210;2022-11-15T02:41:21;62.40;;;28.30;;
57297;SDS011;43147;50.972;18.210;2022-11-15T02:43:54;67.00;;;30.80;;
57297;SDS011;43147;50.972;18.210;2022-11-15T02:46:27;65.00;;;28.90;;
57297;SDS011;43147;50.972;18.210;2022-11-15T02:49:58;69.00;;;29.20;;
57297;SDS011;43147;50.972;18.210;2022-11-15T02:52:25;63.50;;;28.20;;
57297;SDS011;43147;50.972;18.210;2022-11-15T02:57:22;74.90;;;28.30;;
57297;SDS011;43147;50.972;18.210;2022-11-15T03:00:09;69.60;;;29.90;;
57297;SDS011;43147;50.972;18.210;2022-11-15T03:16:03;68.70;;;29.90;;
57297;SDS011;43147;50.972;18.210;2022-11-15T03:18:33;62.20;;;27.30;;
57297;SDS011;43147;50.972;18.210;2022-11-15T03:21:01;67.10;;;30.50;;
57297;SDS011;43147;50.972;18.210;2022-11-15T03:23:30;57.00;;;29.90;;
57297;SDS011;43147;50.972;18.210;2022-11-15T03:25:56;65.40;;;29.10;;
57297;SDS011;43147;50.972;18.210;2022-11-15T03:28:24;72.00;;;30.30;;
57297;SDS011;43147;50.972;18.210;2022-11-15T03:30:53;68.70;;;31.70;;
57297;SDS011;43147;50.972;18.210;2022-11-15T03:33:20;65.60;;;31.50;;
57297;SDS011;43147;50.972;18.210;2022-11-15T03:35:46;74.80;;;31.90;;
57297;SDS011;43147;50.972;18.210;2022-11-15T03:38:23;67.20;;;29.50;;
57297;SDS011;43147;50.972;18.210;2022-11-15T03:40:55;74.50;;;30.70;;
57297;SDS011;43147;50.972;18.210;2022-11-15T03:46:00;68.80;;;29.70;;
57297;SDS011;43147;50.972;18.210;2022-11-15T03:48:30;62.10;;;29.40;;
57297;SDS011;43147;50.972;18.210;2022-11-15T03:50:58;66.30;;;29.50;;
57297;SDS011;43147;50.972;18.210;2022-11-15T03:53:24;64.50;;;29.30;;
57297;SDS011;43147;50.972;18.210;2022-11-15T03:55:50;59.80;;;30.00;;
57297;SDS011;43147;50.972;18.210;2022-11-15T03:58:15;57.10;;;29.80;;
57297;SDS011;43147;50.972;18.210;2022-11-15T04:00:40;68.70;;;29.60;;
57297;SDS011;43147;50.972;18.210;2022-11-15T04:03:06;65.80;;;30.80;;
57297;SDS011;43147;50.972;18.210;2022-11-15T04:05:33;63.30;;;30.30;;
57297;SDS011;43147;50.972;18.210;2022-11-15T04:07:58;63.90;;;28.90;;
57297;SDS011;43147;50.972;18.210;2022-11-15T04:10:24;68.30;;;29.60;;
57297;SDS011;43147;50.972;18.210;2022-11-15T04:12:51;64.50;;;30.80;;
57297;SDS011;43147;50.972;18.210;2022-11-15T04:15:18;71.30;;;30.70;;
57297;SDS011;43147;50.972;18.210;2022-11-15T04:17:49;61.60;;;29.50;;
57297;SDS011;43147;50.972;18.210;2022-11-15T04:23:03;65.70;;;30.40;;
57297;SDS011;43147;50.972;18.210;2022-11-15T04:25:49;63.50;;;28.90;;
57297;SDS011;43147;50.972;18.210;2022-11-15T04:28:16;59.90;;;29.00;;
57297;SDS011;43147;50.972;18.210;2022-11-15T04:30:42;66.90;;;30.00;;
57297;SDS011;43147;50.972;18.210;2022-11-15T04:33:08;68.40;;;32.30;;
57297;SDS011;43147;50.972;18.210;2022-11-15T04:35:33;62.40;;;31.00;;
57297;SDS011;43147;50.972;18.210;2022-11-15T04:38:00;66.10;;;30.50;;
57297;SDS011;43147;50.972;18.210;2022-11-15T04:40:26;66.10;;;31.20;;
57297;SDS011;43147;50.972;18.210;2022-11-15T04:42:51;56.20;;;27.80;;
57297;SDS011;43147;50.972;18.210;2022-11-15T04:45:17;65.40;;;28.20;;
57297;SDS011;43147;50.972;18.210;2022-11-15T04:47:45;63.80;;;29.50;;
57297;SDS011;43147;50.972;18.210;2022-11-15T04:50:11;62.50;;;30.80;;
57297;SDS011;43147;50.972;18.210;2022-11-15T04:52:39;64.30;;;29.80;;
57297;SDS011;43147;50.972;18.210;2022-11-15T04:55:09;66.10;;;32.00;;
57297;SDS011;43147;50.972;18.210;2022-11-15T04:57:35;88.50;;;42.30;;
57297;SDS011;43147;50.972;18.210;2022-11-15T05:00:05;101.80;;;44.70;;
57297;SDS011;43147;50.972;18.210;2022-11-15T05:02:35;95.00;;;41.00;;
57297;SDS011;43147;50.972;18.210;2022-11-15T05:05:19;88.30;;;38.90;;
57297;SDS011;43147;50.972;18.210;2022-11-15T05:07:44;87.90;;;37.40;;
57297;SDS011;43147;50.972;18.210;2022-11-15T05:10:10;85.70;;;35.40;;
57297;SDS011;43147;50.972;18.210;2022-11-15T05:12:36;89.20;;;36.50;;
57297;SDS011;43147;50.972;18.210;2022-11-15T05:15:02;87.10;;;36.60;;
57297;SDS011;43147;50.972;18.210;2022-11-15T05:17:28;89.60;;;36.70;;
57297;SDS011;43147;50.972;18.210;2022-11-15T05:19:54;79.90;;;36.00;;
57297;SDS011;43147;50.972;18.210;2022-11-15T05:22:19;79.80;;;36.20;;
57297;SDS011;43147;50.972;18.210;2022-11-15T05:24:45;96.80;;;38.50;;
57297;SDS011;43147;50.972;18.210;2022-11-15T05:27:13;80.00;;;37.40;;
57297;SDS011;43147;50.972;18.210;2022-11-15T05:29:38;81.70;;;36.60;;
57297;SDS011;43147;50.972;18.210;2022-11-15T05:32:04;72.60;;;33.20;;
57297;SDS011;43147;50.972;18.210;2022-11-15T05:34:31;64.20;;;33.00;;
57297;SDS011;43147;50.972;18.210;2022-11-15T05:36:58;67.60;;;31.70;;
57297;SDS011;43147;50.972;18.210;2022-11-15T05:39:24;72.00;;;31.50;;
57297;SDS011;43147;50.972;18.210;2022-11-15T05:41:52;75.70;;;32.80;;
57297;SDS011;43147;50.972;18.210;2022-11-15T05:44:21;70.10;;;31.80;;
57297;SDS011;43147;50.972;18.210;2022-11-15T05:46:48;61.40;;;29.70;;
57297;SDS011;43147;50.972;18.210;2022-11-15T05:49:15;58.80;;;28.80;;
57297;SDS011;43147;50.972;18.210;2022-11-15T05:51:43;64.20;;;28.80;;
57297;SDS011;43147;50.972;18.210;2022-11-15T05:54:10;63.00;;;30.60;;
57297;SDS011;43147;50.972;18.210;2022-11-15T05:56:36;66.70;;;31.50;;
57297;SDS011;43147;50.972;18.210;2022-11-15T05:59:02;65.00;;;30.80;;
57297;SDS011;43147;50.972;18.210;2022-11-15T06:01:28;65.80;;;30.10;;
57297;SDS011;43147;50.972;18.210;2022-11-15T06:03:53;61.10;;;30.00;;
57297;SDS011;43147;50.972;18.210;2022-11-15T06:06:19;63.10;;;30.30;;
57297;SDS011;43147;50.972;18.210;2022-11-15T06:08:44;68.60;;;31.00;;
57297;SDS011;43147;50.972;18.210;2022-11-15T06:11:10;72.00;;;33.60;;
57297;SDS011;43147;50.972;18.210;2022-11-15T06:13:35;68.20;;;35.00;;
57297;SDS011;43147;50.972;18.210;2022-11-15T06:16:01;72.70;;;33.30;;
57297;SDS011;43147;50.972;18.210;2022-11-15T06:18:26;73.50;;;33.60;;
57297;SDS011;43147;50.972;18.210;2022-11-15T06:20:52;68.80;;;32.50;;
57297;SDS011;43147;50.972;18.210;2022-11-15T06:23:17;68.80;;;32.10;;
57297;SDS011;43147;50.972;18.210;2022-11-15T06:25:45;71.40;;;33.90;;
57297;SDS011;43147;50.972;18.210;2022-11-15T06:28:10;73.90;;;37.70;;
57297;SDS011;43147;50.972;18.210;2022-11-15T06:30:35;78.00;;;37.70;;
57297;SDS011;43147;50.972;18.210;2022-11-15T06:33:02;80.50;;;39.50;;
57297;SDS011;43147;50.972;18.210;2022-11-15T06:35:29;78.60;;;40.60;;
57297;SDS011;43147;50.972;18.210;2022-11-15T06:37:55;85.10;;;44.60;;
57297;SDS011;43147;50.972;18.210;2022-11-15T06:40:20;78.40;;;43.10;;
57297;SDS011;43147;50.972;18.210;2022-11-15T06:42:46;70.40;;;39.60;;
57297;SDS011;43147;50.972;18.210;2022-11-15T06:45:11;65.30;;;38.30;;
57297;SDS011;43147;50.972;18.210;2022-11-15T06:47:46;63.70;;;36.70;;
57297;SDS011;43147;50.972;18.210;2022-11-15T06:50:13;56.30;;;36.10;;
57297;SDS011;43147;50.972;18.210;2022-11-15T06:52:38;54.80;;;35.70;;
57297;SDS011;43147;50.972;18.210;2022-11-15T06:55:04;55.90;;;35.20;;
57297;SDS011;43147;50.972;18.210;2022-11-15T06:57:30;55.80;;;39.30;;
57297;SDS011;43147;50.972;18.210;2022-11-15T06:59:55;56.00;;;42.80;;
57297;SDS011;43147;50.972;18.210;2022-11-15T07:02:21;53.30;;;40.40;;
57297;SDS011;43147;50.972;18.210;2022-11-15T07:04:46;56.60;;;42.30;;
57297;SDS011;43147;50.972;18.210;2022-11-15T07:07:12;58.10;;;41.00;;
57297;SDS011;43147;50.972;18.210;2022-11-15T07:09:37;51.70;;;40.40;;
57297;SDS011;43147;50.972;18.210;2022-11-15T07:12:03;51.70;;;38.60;;
57297;SDS011;43147;50.972;18.210;2022-11-15T07:14:29;45.30;;;35.60;;
57297;SDS011;43147;50.972;18.210;2022-11-15T07:16:54;50.90;;;34.90;;
57297;SDS011;43147;50.972;18.210;2022-11-15T07:19:22;44.40;;;34.90;;
57297;SDS011;43147;50.972;18.210;2022-11-15T07:21:47;41.60;;;32.40;;
57297;SDS011;43147;50.972;18.210;2022-11-15T07:24:13;47.30;;;32.10;;
57297;SDS011;43147;50.972;18.210;2022-11-15T07:26:38;45.80;;;34.30;;
57297;SDS011;43147;50.972;18.210;2022-11-15T07:29:04;43.40;;;32.90;;
57297;SDS011;43147;50.972;18.210;2022-11-15T07:31:29;43.00;;;32.70;;
57297;SDS011;43147;50.972;18.210;2022-11-15T07:33:55;49.80;;;33.70;;
57297;SDS011;43147;50.972;18.210;2022-11-15T07:36:20;45.20;;;32.80;;
57297;SDS011;43147;50.972;18.210;2022-11-15T07:38:45;45.00;;;31.20;;
57297;SDS011;43147;50.972;18.210;2022-11-15T07:41:11;46.80;;;30.80;;
57297;SDS011;43147;50.972;18.210;2022-11-15T07:43:36;42.20;;;27.50;;
57297;SDS011;43147;50.972;18.210;2022-11-15T07:46:06;36.80;;;25.10;;
57297;SDS011;43147;50.972;18.210;2022-11-15T07:48:34;37.10;;;28.10;;
57297;SDS011;43147;50.972;18.210;2022-11-15T07:51:01;41.20;;;28.70;;
57297;SDS011;43147;50.972;18.210;2022-11-15T07:53:27;36.40;;;26.70;;
57297;SDS011;43147;50.972;18.210;2022-11-15T07:55:53;36.90;;;25.90;;
57297;SDS011;43147;50.972;18.210;2022-11-15T07:58:19;31.30;;;25.40;;
57297;SDS011;43147;50.972;18.210;2022-11-15T08:00:44;31.50;;;23.90;;
57297;SDS011;43147;50.972;18.210;2022-11-15T08:03:11;28.50;;;24.00;;
57297;SDS011;43147;50.972;18.210;2022-11-15T08:05:39;33.30;;;24.10;;
57297;SDS011;43147;50.972;18.210;2022-11-15T08:08:05;33.40;;;24.00;;
57297;SDS011;43147;50.972;18.210;2022-11-15T08:10:32;38.40;;;25.60;;
57297;SDS011;43147;50.972;18.210;2022-11-15T08:12:58;34.20;;;24.90;;
57297;SDS011;43147;50.972;18.210;2022-11-15T08:15:25;38.70;;;26.40;;
57297;SDS011;43147;50.972;18.210;2022-11-15T08:17:57;35.40;;;26.80;;
57297;SDS011;43147;50.972;18.210;2022-11-15T08:20:25;34.40;;;26.80;;
57297;SDS011;43147;50.972;18.210;2022-11-15T08:22:51;37.50;;;27.30;;
57297;SDS011;43147;50.972;18.210;2022-11-15T08:25:17;32.60;;;25.10;;
57297;SDS011;43147;50.972;18.210;2022-11-15T08:27:43;32.50;;;24.70;;
57297;SDS011;43147;50.972;18.210;2022-11-15T08:30:09;36.00;;;26.20;;
57297;SDS011;43147;50.972;18.210;2022-11-15T08:32:35;33.50;;;25.70;;
57297;SDS011;43147;50.972;18.210;2022-11-15T08:35:00;37.70;;;26.10;;
57297;SDS011;43147;50.972;18.210;2022-11-15T08:37:26;37.10;;;25.70;;
57297;SDS011;43147;50.972;18.210;2022-11-15T08:39:51;37.50;;;25.30;;
57297;SDS011;43147;50.972;18.210;2022-11-15T08:42:17;37.80;;;25.20;;
57297;SDS011;43147;50.972;18.210;2022-11-15T08:44:42;34.70;;;24.40;;
57297;SDS011;43147;50.972;18.210;2022-11-15T08:47:10;35.60;;;25.20;;
57297;SDS011;43147;50.972;18.210;2022-11-15T08:49:36;41.70;;;27.20;;
57297;SDS011;43147;50.972;18.210;2022-11-15T08:52:02;47.20;;;28.50;;
57297;SDS011;43147;50.972;18.210;2022-11-15T08:54:30;38.50;;;26.00;;
57297;SDS011;43147;50.972;18.210;2022-11-15T08:56:55;33.90;;;25.60;;
57297;SDS011;43147;50.972;18.210;2022-11-15T08:59:20;25.90;;;22.80;;
57297;SDS011;43147;50.972;18.210;2022-11-15T09:01:46;33.00;;;21.60;;
57297;SDS011;43147;50.972;18.210;2022-11-15T09:04:12;28.10;;;22.10;;
57297;SDS011;43147;50.972;18.210;2022-11-15T09:06:37;26.80;;;20.10;;
57297;SDS011;43147;50.972;18.210;2022-11-15T09:09:03;22.90;;;19.30;;
57297;SDS011;43147;50.972;18.210;2022-11-15T09:11:28;25.50;;;19.50;;
57297;SDS011;43147;50.972;18.210;2022-11-15T09:13:54;32.70;;;18.60;;
57297;SDS011;43147;50.972;18.210;2022-11-15T09:16:20;21.00;;;17.20;;
57297;SDS011;43147;50.972;18.210;2022-11-15T09:18:45;20.30;;;18.10;;
57297;SDS011;43147;50.972;18.210;2022-11-15T09:21:11;20.20;;;17.00;;
57297;SDS011;43147;50.972;18.210;2022-11-15T09:23:37;22.00;;;17.90;;
57297;SDS011;43147;50.972;18.210;2022-11-15T09:26:03;22.40;;;17.50;;
57297;SDS011;43147;50.972;18.210;2022-11-15T09:28:31;18.30;;;16.40;;
57297;SDS011;43147;50.972;18.210;2022-11-15T09:30:57;25.10;;;18.00;;
57297;SDS011;43147;50.972;18.210;2022-11-15T09:33:24;18.90;;;16.90;;
57297;SDS011;43147;50.972;18.210;2022-11-15T09:35:49;18.80;;;16.80;;
57297;SDS011;43147;50.972;18.210;2022-11-15T09:38:15;21.00;;;17.10;;
57297;SDS011;43147;50.972;18.210;2022-11-15T09:40:40;22.50;;;18.20;;
57297;SDS011;43147;50.972;18.210;2022-11-15T09:48:54;22.90;;;17.50;;
57297;SDS011;43147;50.972;18.210;2022-11-15T09:51:27;24.70;;;18.60;;
57297;SDS011;43147;50.972;18.210;2022-11-15T09:56:33;22.60;;;17.20;;
57297;SDS011;43147;50.972;18.210;2022-11-15T10:01:49;22.10;;;16.30;;
57297;SDS011;43147;50.972;18.210;2022-11-15T10:04:33;22.70;;;17.10;;
57297;SDS011;43147;50.972;18.210;2022-11-15T10:07:04;20.40;;;17.40;;
57297;SDS011;43147;50.972;18.210;2022-11-15T10:10:17;21.70;;;16.80;;
57297;SDS011;43147;50.972;18.210;2022-11-15T10:12:27;20.90;;;16.70;;
57297;SDS011;43147;50.972;18.210;2022-11-15T10:15:00;21.50;;;16.90;;
57297;SDS011;43147;50.972;18.210;2022-11-15T10:17:36;20.70;;;17.30;;
57297;SDS011;43147;50.972;18.210;2022-11-15T10:22:44;20.40;;;17.60;;
57297;SDS011;43147;50.972;18.210;2022-11-15T10:27:51;23.00;;;17.20;;
57297;SDS011;43147;50.972;18.210;2022-11-15T10:30:22;20.20;;;17.20;;
57297;SDS011;43147;50.972;18.210;2022-11-15T10:32:53;21.70;;;16.60;;
57297;SDS011;43147;50.972;18.210;2022-11-15T10:35:24;25.10;;;16.60;;
57297;SDS011;43147;50.972;18.210;2022-11-15T10:38:07;18.80;;;15.60;;
57297;SDS011;43147;50.972;18.210;2022-11-15T10:40:34;41.10;;;27.10;;
57297;SDS011;43147;50.972;18.210;2022-11-15T10:43:05;22.80;;;18.30;;
57297;SDS011;43147;50.972;18.210;2022-11-15T10:45:33;37.80;;;25.10;;
57297;SDS011;43147;50.972;18.210;2022-11-15T10:50:37;34.40;;;24.20;;
57297;SDS011;43147;50.972;18.210;2022-11-15T10:53:10;19.40;;;15.40;;
57297;SDS011;43147;50.972;18.210;2022-11-15T10:55:41;17.10;;;13.70;;
57297;SDS011;43147;50.972;18.210;2022-11-15T10:58:32;14.40;;;13.00;;
57297;SDS011;43147;50.972;18.210;2022-11-15T11:01:08;18.20;;;14.70;;
57297;SDS011;43147;50.972;18.210;2022-11-15T11:03:45;16.40;;;13.90;;
57297;SDS011;43147;50.972;18.210;2022-11-15T11:06:26;20.50;;;14.90;;
57297;SDS011;43147;50.972;18.210;2022-11-15T11:09:02;19.00;;;14.80;;
57297;SDS011;43147;50.972;18.210;2022-11-15T11:11:48;29.10;;;15.40;;
57297;SDS011;43147;50.972;18.210;2022-11-15T11:14:20;22.60;;;16.00;;
57297;SDS011;43147;50.972;18.210;2022-11-15T11:16:53;15.10;;;13.60;;
57297;SDS011;43147;50.972;18.210;2022-11-15T11:19:30;22.30;;;13.70;;
57297;SDS011;43147;50.972;18.210;2022-11-15T11:31:24;12.80;;;11.20;;
57297;SDS011;43147;50.972;18.210;2022-11-15T11:34:34;13.20;;;11.80;;
57297;SDS011;43147;50.972;18.210;2022-11-15T11:37:14;13.80;;;11.90;;
57297;SDS011;43147;50.972;18.210;2022-11-15T11:45:48;14.60;;;13.10;;
57297;SDS011;43147;50.972;18.210;2022-11-15T11:48:42;17.90;;;14.50;;
57297;SDS011;43147;50.972;18.210;2022-11-15T11:51:14;18.70;;;11.60;;
57297;SDS011;43147;50.972;18.210;2022-11-15T11:56:31;26.40;;;12.40;;
57297;SDS011;43147;50.972;18.210;2022-11-15T11:59:19;16.10;;;11.70;;
57297;SDS011;43147;50.972;18.210;2022-11-15T12:02:01;13.60;;;11.90;;
57297;SDS011;43147;50.972;18.210;2022-11-15T12:04:38;13.90;;;10.60;;
57297;SDS011;43147;50.972;18.210;2022-11-15T12:07:23;14.30;;;11.90;;
57297;SDS011;43147;50.972;18.210;2022-11-15T12:13:02;17.70;;;13.30;;
57297;SDS011;43147;50.972;18.210;2022-11-15T12:15:36;14.70;;;12.50;;
57297;SDS011;43147;50.972;18.210;2022-11-15T12:18:07;25.10;;;12.70;;
57297;SDS011;43147;50.972;18.210;2022-11-15T12:20:36;15.70;;;11.90;;
57297;SDS011;43147;50.972;18.210;2022-11-15T12:23:12;15.70;;;12.90;;
57297;SDS011;43147;50.972;18.210;2022-11-15T12:26:00;15.80;;;13.70;;
57297;SDS011;43147;50.972;18.210;2022-11-15T12:28:34;21.00;;;13.70;;
57297;SDS011;43147;50.972;18.210;2022-11-15T12:31:11;20.80;;;14.20;;
57297;SDS011;43147;50.972;18.210;2022-11-15T12:33:40;16.30;;;13.60;;
57297;SDS011;43147;50.972;18.210;2022-11-15T12:36:11;18.90;;;15.10;;
57297;SDS011;43147;50.972;18.210;2022-11-15T12:39:05;23.20;;;16.90;;
57297;SDS011;43147;50.972;18.210;2022-11-15T12:41:36;25.20;;;16.60;;
57297;SDS011;43147;50.972;18.210;2022-11-15T12:44:02;25.40;;;17.10;;
57297;SDS011;43147;50.972;18.210;2022-11-15T12:51:22;23.40;;;16.20;;
57297;SDS011;43147;50.972;18.210;2022-11-15T13:02:19;35.70;;;17.90;;
57297;SDS011;43147;50.972;18.210;2022-11-15T13:04:46;21.20;;;17.90;;
57297;SDS011;43147;50.972;18.210;2022-11-15T13:09:59;20.20;;;17.70;;
57297;SDS011;43147;50.972;18.210;2022-11-15T13:34:15;25.90;;;17.80;;
57297;SDS011;43147;50.972;18.210;2022-11-15T13:36:46;30.70;;;18.00;;
57297;SDS011;43147;50.972;18.210;2022-11-15T13:39:25;18.90;;;16.70;;
57297;SDS011;43147;50.972;18.210;2022-11-15T13:41:52;23.30;;;17.70;;
57297;SDS011;43147;50.972;18.210;2022-11-15T13:44:21;32.20;;;17.40;;
57297;SDS011;43147;50.972;18.210;2022-11-15T13:46:48;26.60;;;17.50;;
57297;SDS011;43147;50.972;18.210;2022-11-15T13:49:13;23.70;;;17.70;;
57297;SDS011;43147;50.972;18.210;2022-11-15T13:56:55;28.60;;;19.50;;
57297;SDS011;43147;50.972;18.210;2022-11-15T13:59:47;28.60;;;20.50;;
57297;SDS011;43147;50.972;18.210;2022-11-15T14:02:15;26.80;;;20.50;;
57297;SDS011;43147;50.972;18.210;2022-11-15T14:04:50;27.90;;;20.10;;
57297;SDS011;43147;50.972;18.210;2022-11-15T14:07:18;28.30;;;21.10;;
57297;SDS011;43147;50.972;18.210;2022-11-15T14:09:46;26.40;;;21.20;;
57297;SDS011;43147;50.972;18.210;2022-11-15T14:12:25;34.80;;;21.30;;
57297;SDS011;43147;50.972;18.210;2022-11-15T14:14:51;25.50;;;19.60;;
57297;SDS011;43147;50.972;18.210;2022-11-15T14:19:54;27.80;;;19.40;;
57297;SDS011;43147;50.972;18.210;2022-11-15T14:22:24;26.10;;;18.70;;
57297;SDS011;43147;50.972;18.210;2022-11-15T14:27:43;33.70;;;21.20;;
57297;SDS011;43147;50.972;18.210;2022-11-15T14:30:16;33.10;;;22.10;;
57297;SDS011;43147;50.972;18.210;2022-11-15T14:32:45;33.40;;;22.40;;
57297;SDS011;43147;50.972;18.210;2022-11-15T14:35:17;33.70;;;20.80;;
57297;SDS011;43147;50.972;18.210;2022-11-15T14:37:44;35.20;;;21.40;;
57297;SDS011;43147;50.972;18.210;2022-11-15T14:40:12;34.30;;;21.20;;
57297;SDS011;43147;50.972;18.210;2022-11-15T14:42:40;36.70;;;22.10;;
57297;SDS011;43147;50.972;18.210;2022-11-15T14:45:26;38.50;;;20.80;;
57297;SDS011;43147;50.972;18.210;2022-11-15T14:47:52;34.30;;;20.50;;
57297;SDS011;43147;50.972;18.210;2022-11-15T14:50:18;35.40;;;22.00;;
57297;SDS011;43147;50.972;18.210;2022-11-15T14:52:45;39.20;;;22.50;;
57297;SDS011;43147;50.972;18.210;2022-11-15T14:55:16;51.50;;;24.00;;
57297;SDS011;43147;50.972;18.210;2022-11-15T14:57:44;42.70;;;21.80;;
57297;SDS011;43147;50.972;18.210;2022-11-15T15:00:10;42.50;;;22.30;;
57297;SDS011;43147;50.972;18.210;2022-11-15T15:02:36;46.20;;;23.20;;
57297;SDS011;43147;50.972;18.210;2022-11-15T15:05:11;45.30;;;23.60;;
57297;SDS011;43147;50.972;18.210;2022-11-15T15:07:40;47.90;;;23.50;;
57297;SDS011;43147;50.972;18.210;2022-11-15T15:10:06;42.20;;;22.60;;
57297;SDS011;43147;50.972;18.210;2022-11-15T15:12:32;37.10;;;23.00;;
57297;SDS011;43147;50.972;18.210;2022-11-15T15:14:58;41.10;;;23.70;;
57297;SDS011;43147;50.972;18.210;2022-11-15T15:17:25;43.30;;;23.10;;
57297;SDS011;43147;50.972;18.210;2022-11-15T15:19:51;43.00;;;23.80;;
57297;SDS011;43147;50.972;18.210;2022-11-15T15:22:19;41.90;;;24.20;;
57297;SDS011;43147;50.972;18.210;2022-11-15T15:24:47;41.10;;;24.30;;
57297;SDS011;43147;50.972;18.210;2022-11-15T15:27:13;49.30;;;27.70;;
57297;SDS011;43147;50.972;18.210;2022-11-15T15:29:39;46.30;;;26.00;;
57297;SDS011;43147;50.972;18.210;2022-11-15T15:32:05;53.00;;;27.90;;
57297;SDS011;43147;50.972;18.210;2022-11-15T15:34:31;53.20;;;29.10;;
57297;SDS011;43147;50.972;18.210;2022-11-15T15:37:07;49.70;;;29.40;;
57297;SDS011;43147;50.972;18.210;2022-11-15T15:39:32;65.60;;;34.30;;
57297;SDS011;43147;50.972;18.210;2022-11-15T15:41:58;57.60;;;31.90;;
57297;SDS011;43147;50.972;18.210;2022-11-15T15:44:24;64.60;;;33.80;;
57297;SDS011;43147;50.972;18.210;2022-11-15T15:46:50;60.30;;;34.10;;
57297;SDS011;43147;50.972;18.210;2022-11-15T15:49:15;74.10;;;35.30;;
57297;SDS011;43147;50.972;18.210;2022-11-15T15:51:41;55.90;;;31.60;;
57297;SDS011;43147;50.972;18.210;2022-11-15T15:54:06;49.20;;;30.00;;
57297;SDS011;43147;50.972;18.210;2022-11-15T15:56:32;51.10;;;30.50;;
57297;SDS011;43147;50.972;18.210;2022-11-15T15:58:57;60.00;;;31.80;;
57297;SDS011;43147;50.972;18.210;2022-11-15T16:01:25;54.00;;;32.80;;
57297;SDS011;43147;50.972;18.210;2022-11-15T16:03:50;55.80;;;31.50;;
57297;SDS011;43147;50.972;18.210;2022-11-15T16:06:35;63.40;;;35.90;;
57297;SDS011;43147;50.972;18.210;2022-11-15T16:09:03;64.80;;;36.20;;
57297;SDS011;43147;50.972;18.210;2022-11-15T16:11:32;63.90;;;35.90;;
57297;SDS011;43147;50.972;18.210;2022-11-15T16:13:58;70.80;;;38.00;;
57297;SDS011;43147;50.972;18.210;2022-11-15T16:16:24;82.40;;;42.40;;
57297;SDS011;43147;50.972;18.210;2022-11-15T16:18:50;72.60;;;40.90;;
57297;SDS011;43147;50.972;18.210;2022-11-15T16:21:15;65.10;;;34.00;;
57297;SDS011;43147;50.972;18.210;2022-11-15T16:23:40;67.90;;;36.10;;
57297;SDS011;43147;50.972;18.210;2022-11-15T16:26:12;71.50;;;39.10;;